createdAt,value
2023-05-04T00:01:37.041Z,45.10
2023-05-04T00:04:06.594Z,45.20
2023-05-04T00:06:35.238Z,45.20
2023-05-04T00:09:04.650Z,45.20
2023-05-04T00:11:35.273Z,45.20
2023-05-04T00:14:04.253Z,45.20
2023-05-04T00:16:32.666Z,45.20
2023-05-04T00:19:01.419Z,45.30
2023-05-04T00:21:29.908Z,45.20
2023-05-04T00:23:58.338Z,45.40
2023-05-04T00:26:26.938Z,45.40
2023-05-04T00:28:57.032Z,45.40
2023-05-04T00:31:25.923Z,45.50
2023-05-04T00:33:54.297Z,45.40
2023-05-04T00:36:22.780Z,45.50
2023-05-04T00:38:53.142Z,45.60
2023-05-04T00:41:23.074Z,45.70
2023-05-04T00:43:51.630Z,45.70
2023-05-04T00:46:22.416Z,45.80
2023-05-04T00:48:52.222Z,45.70
2023-05-04T00:51:24.161Z,45.70
2023-05-04T00:53:55.150Z,45.80
2023-05-04T00:56:25.006Z,45.80
2023-05-04T00:58:54.728Z,45.70
2023-05-04T01:01:24.740Z,45.70
2023-05-04T01:03:55.742Z,45.70
2023-05-04T01:06:33.353Z,45.70
2023-05-04T01:09:11.800Z,45.80
2023-05-04T01:11:45.618Z,45.90
2023-05-04T01:14:16.583Z,45.80
2023-05-04T01:16:47.280Z,45.90
2023-05-04T01:19:16.952Z,45.90
2023-05-04T01:21:47.878Z,45.90
2023-05-04T01:24:16.899Z,46.00
2023-05-04T01:26:48.499Z,46.00
2023-05-04T01:29:23.140Z,46.10
2023-05-04T01:31:52.233Z,46.20
2023-05-04T01:34:23.711Z,46.10
2023-05-04T01:36:54.220Z,46.80
2023-05-04T01:39:26.187Z,46.10
2023-05-04T01:41:56.203Z,46.10
2023-05-04T01:44:24.629Z,46.20
2023-05-04T01:46:53.025Z,46.20
2023-05-04T01:49:21.533Z,46.30
2023-05-04T01:51:53.180Z,46.30
2023-05-04T01:54:21.499Z,46.30
2023-05-04T01:56:50.153Z,46.30
2023-05-04T01:59:18.709Z,46.30
2023-05-04T02:01:47.261Z,46.30
2023-05-04T02:04:15.863Z,46.30
2023-05-04T02:06:44.392Z,46.30
2023-05-04T02:09:15.629Z,46.50
2023-05-04T02:11:44.372Z,46.50
2023-05-04T02:14:12.783Z,46.50
2023-05-04T02:16:41.651Z,46.50
2023-05-04T02:19:10.196Z,46.50
2023-05-04T02:21:38.682Z,46.50
2023-05-04T02:24:07.589Z,46.60
2023-05-04T02:26:37.449Z,46.70
2023-05-04T02:29:06.356Z,46.60
2023-05-04T02:31:35.404Z,46.70
2023-05-04T02:34:03.970Z,46.70
2023-05-04T02:36:32.584Z,46.70
2023-05-04T02:39:01.424Z,46.80
2023-05-04T02:41:29.902Z,46.80
2023-05-04T02:43:59.647Z,46.80
2023-05-04T02:46:28.345Z,47.40
2023-05-04T02:48:56.705Z,46.80
2023-05-04T02:51:25.172Z,46.80
2023-05-04T02:53:53.632Z,46.80
2023-05-04T02:56:22.123Z,46.90
2023-05-04T02:58:50.493Z,46.90
2023-05-04T03:01:20.515Z,46.90
2023-05-04T03:03:49.193Z,46.90
2023-05-04T03:06:17.618Z,46.90
2023-05-04T03:08:46.366Z,47.00
2023-05-04T03:11:15.154Z,47.00
2023-05-04T03:13:43.611Z,47.00
2023-05-04T03:16:12.968Z,47.00
2023-05-04T03:18:43.763Z,47.10
2023-05-04T03:21:12.601Z,47.10
2023-05-04T03:23:41.118Z,47.10
2023-05-04T03:26:09.618Z,47.10
2023-05-04T03:28:38.128Z,47.10
2023-05-04T03:31:06.817Z,47.20
2023-05-04T03:33:35.463Z,47.20
2023-05-04T03:36:06.689Z,47.30
2023-05-04T03:38:35.109Z,47.40
2023-05-04T03:41:04.947Z,47.40
2023-05-04T03:43:33.350Z,47.50
2023-05-04T03:46:02.281Z,47.50
2023-05-04T03:48:31.157Z,47.40
2023-05-04T03:50:59.966Z,47.40
2023-05-04T03:53:29.691Z,47.40
2023-05-04T03:55:58.050Z,48.00
2023-05-04T03:58:26.427Z,47.50
2023-05-04T04:00:55.252Z,47.50
2023-05-04T04:03:24.061Z,47.50
2023-05-04T04:05:52.492Z,47.60
2023-05-04T04:08:21.031Z,47.60
2023-05-04T04:10:51.713Z,47.60
2023-05-04T04:13:20.298Z,47.60
2023-05-04T04:15:50.362Z,47.60
2023-05-04T04:18:18.787Z,47.60
2023-05-04T04:20:47.278Z,47.60
2023-05-04T04:23:18.490Z,47.70
2023-05-04T04:25:46.983Z,47.70
2023-05-04T04:28:17.451Z,47.80
2023-05-04T04:30:46.362Z,47.80
2023-05-04T04:33:15.249Z,47.80
2023-05-04T04:35:43.748Z,47.80
2023-05-04T04:38:12.363Z,48.00
2023-05-04T04:40:40.783Z,48.00
2023-05-04T04:43:09.115Z,48.00
2023-05-04T04:45:41.244Z,48.00
2023-05-04T04:48:09.613Z,48.20
2023-05-04T04:50:40.709Z,48.20
2023-05-04T04:53:09.835Z,48.30
2023-05-04T04:55:38.295Z,48.30
2023-05-04T04:58:08.533Z,48.30
2023-05-04T05:00:38.711Z,48.40
2023-05-04T05:03:07.586Z,48.40
2023-05-04T05:05:36.284Z,48.50
2023-05-04T05:08:04.816Z,48.50
2023-05-04T05:10:33.869Z,48.60
2023-05-04T05:13:03.000Z,48.60
2023-05-04T05:15:31.777Z,48.70
2023-05-04T05:18:01.816Z,48.80
2023-05-04T05:20:30.427Z,48.80
2023-05-04T05:22:58.767Z,48.90
2023-05-04T05:25:27.991Z,49.00
2023-05-04T05:27:56.645Z,49.00
2023-05-04T05:30:25.466Z,49.00
2023-05-04T05:32:53.949Z,49.10
2023-05-04T05:35:24.217Z,49.10
2023-05-04T05:37:53.036Z,49.20
2023-05-04T05:40:22.403Z,49.20
2023-05-04T05:42:50.732Z,49.30
2023-05-04T05:45:19.466Z,49.30
2023-05-04T05:47:47.905Z,49.40
2023-05-04T05:50:19.419Z,49.40
2023-05-04T05:52:49.202Z,49.60
2023-05-04T05:55:17.963Z,49.60
2023-05-04T05:57:46.756Z,49.60
2023-05-04T06:00:17.340Z,49.80
2023-05-04T06:02:46.144Z,49.80
2023-05-04T06:05:15.544Z,49.80
2023-05-04T06:07:43.917Z,49.90
2023-05-04T06:10:15.256Z,50.00
2023-05-04T06:12:43.974Z,50.10
2023-05-04T06:15:14.372Z,50.10
2023-05-04T06:17:43.348Z,50.20
2023-05-04T06:20:12.994Z,50.20
2023-05-04T06:22:41.296Z,50.40
2023-05-04T06:25:11.529Z,50.40
2023-05-04T06:27:41.348Z,51.10
2023-05-04T06:30:11.178Z,50.50
2023-05-04T06:32:40.078Z,50.50
2023-05-04T06:35:10.588Z,50.50
2023-05-04T06:37:39.087Z,50.50
2023-05-04T06:40:09.566Z,50.70
2023-05-04T06:42:38.178Z,50.80
2023-05-04T06:45:09.876Z,50.90
2023-05-04T06:47:38.306Z,51.10
2023-05-04T06:50:11.820Z,51.10
2023-05-04T06:52:42.161Z,51.20
2023-05-04T06:55:10.932Z,51.10
2023-05-04T06:57:39.430Z,51.30
2023-05-04T07:00:11.433Z,51.30
2023-05-04T07:02:40.162Z,51.60
2023-05-04T07:05:09.704Z,51.60
2023-05-04T07:07:39.150Z,51.70
2023-05-04T07:10:10.178Z,51.80
2023-05-04T07:12:38.686Z,52.00
2023-05-04T07:15:10.553Z,52.10
2023-05-04T07:17:39.577Z,52.10
2023-05-04T07:20:09.711Z,52.20
2023-05-04T07:22:38.092Z,52.00
2023-05-04T07:25:07.156Z,51.90
2023-05-04T07:27:37.182Z,52.00
2023-05-04T07:30:11.298Z,51.90
2023-05-04T07:32:39.789Z,51.70
2023-05-04T07:35:09.421Z,51.60
2023-05-04T07:37:37.834Z,51.40
2023-05-04T07:40:08.398Z,51.30
2023-05-04T07:42:37.358Z,51.30
2023-05-04T07:45:08.410Z,51.30
2023-05-04T07:47:38.642Z,51.40
2023-05-04T07:50:08.763Z,51.40
2023-05-04T07:52:37.493Z,51.50
2023-05-04T07:55:07.090Z,51.40
2023-05-04T07:57:37.811Z,51.30
2023-05-04T08:00:08.892Z,51.30
2023-05-04T08:02:45.365Z,51.10
2023-05-04T08:05:13.977Z,51.00
2023-05-04T08:07:42.393Z,50.90
2023-05-04T08:10:11.685Z,50.80
2023-05-04T08:12:41.685Z,50.80
2023-05-04T08:15:11.415Z,50.80
2023-05-04T08:17:40.771Z,50.70
2023-05-04T08:20:13.002Z,50.70
2023-05-04T08:22:41.514Z,50.60
2023-05-04T08:25:11.200Z,50.50
2023-05-04T08:27:40.203Z,50.50
2023-05-04T08:30:10.404Z,50.20
2023-05-04T08:32:38.811Z,50.20
2023-05-04T08:35:08.104Z,49.90
2023-05-04T08:37:38.331Z,49.80
2023-05-04T08:40:08.512Z,49.80
2023-05-04T08:42:37.997Z,49.80
2023-05-04T08:45:08.133Z,49.80
2023-05-04T08:47:36.783Z,49.90
2023-05-04T08:50:07.611Z,49.80
2023-05-04T08:52:39.074Z,49.80
2023-05-04T08:55:08.798Z,49.60
2023-05-04T08:57:37.457Z,49.60
2023-05-04T09:00:09.118Z,49.60
2023-05-04T09:02:39.621Z,49.30
2023-05-04T09:05:09.426Z,49.20
2023-05-04T09:07:39.249Z,49.20
2023-05-04T09:10:09.549Z,49.10
2023-05-04T09:12:38.786Z,49.00
2023-05-04T09:15:18.127Z,48.90
2023-05-04T09:17:58.156Z,48.90
2023-05-04T09:20:27.084Z,48.90
2023-05-04T09:23:06.981Z,49.10
2023-05-04T09:25:35.730Z,48.90
2023-05-04T09:28:04.258Z,48.90
2023-05-04T09:30:33.034Z,48.90
2023-05-04T09:33:03.276Z,48.80
2023-05-04T09:35:33.690Z,48.90
2023-05-04T09:38:05.101Z,48.80
2023-05-04T09:40:37.787Z,48.60
2023-05-04T09:43:06.703Z,48.70
2023-05-04T09:45:42.767Z,48.70
2023-05-04T09:48:20.154Z,48.60
2023-05-04T09:50:54.789Z,48.30
2023-05-04T09:53:26.692Z,48.50
2023-05-04T09:56:08.124Z,48.60
2023-05-04T09:58:38.158Z,48.10
2023-05-04T10:01:08.306Z,48.20
2023-05-04T10:03:37.817Z,48.20
2023-05-04T10:06:08.961Z,48.10
2023-05-04T10:08:40.232Z,47.90
2023-05-04T10:11:09.706Z,47.70
2023-05-04T10:13:38.076Z,47.80
2023-05-04T10:16:32.959Z,47.30
2023-05-04T10:19:31.202Z,47.10
2023-05-04T10:22:22.829Z,46.60
2023-05-04T10:25:30.903Z,46.70
2023-05-04T10:28:08.452Z,46.30
2023-05-04T10:30:39.964Z,46.40
2023-05-04T10:33:08.889Z,46.10
2023-05-04T10:35:37.864Z,46.10
2023-05-04T10:38:06.430Z,45.90
2023-05-04T10:40:42.054Z,46.50
2023-05-04T10:43:11.619Z,45.40
2023-05-04T10:45:41.724Z,45.90
2023-05-04T10:48:11.060Z,45.50
2023-05-04T10:50:47.643Z,46.10
2023-05-04T10:53:18.485Z,44.90
2023-05-04T10:55:49.871Z,45.30
2023-05-04T10:58:29.195Z,45.10
2023-05-04T11:00:57.783Z,45.10
2023-05-04T11:03:26.917Z,45.20
2023-05-04T11:05:55.690Z,45.20
2023-05-04T11:08:25.946Z,45.30
2023-05-04T11:11:05.163Z,45.10
2023-05-04T11:13:36.494Z,45.00
2023-05-04T11:16:05.122Z,44.50
2023-05-04T11:18:37.437Z,44.50
2023-05-04T11:21:06.445Z,44.50
2023-05-04T11:23:35.103Z,44.20
2023-05-04T11:26:09.432Z,44.20
2023-05-04T11:28:39.850Z,43.80
2023-05-04T11:31:14.787Z,44.00
2023-05-04T11:33:48.314Z,43.10
2023-05-04T11:36:19.234Z,43.10
2023-05-04T11:38:48.076Z,43.20
2023-05-04T11:41:18.685Z,43.20
2023-05-04T11:43:48.181Z,43.10
2023-05-04T11:46:18.073Z,43.30
2023-05-04T11:48:47.896Z,43.10
2023-05-04T11:51:16.246Z,42.80
2023-05-04T11:53:44.692Z,42.60
2023-05-04T11:56:13.182Z,42.40
2023-05-04T11:58:43.105Z,42.50
2023-05-04T12:01:11.584Z,42.00
2023-05-04T12:03:51.966Z,42.10
2023-05-04T12:06:33.873Z,42.20
2023-05-04T12:09:07.245Z,42.00
2023-05-04T12:11:38.273Z,41.70
2023-05-04T12:14:11.147Z,42.00
2023-05-04T12:16:42.773Z,41.60
2023-05-04T12:19:13.484Z,41.40
2023-05-04T12:21:53.077Z,41.60
2023-05-04T12:24:24.797Z,41.20
2023-05-04T12:26:53.560Z,41.40
2023-05-04T12:29:23.422Z,41.50
2023-05-04T12:31:52.076Z,41.80
2023-05-04T12:34:20.433Z,41.20
2023-05-04T12:36:51.919Z,41.20
2023-05-04T12:39:21.062Z,41.10
2023-05-04T12:41:49.405Z,40.40
2023-05-04T12:44:18.845Z,39.90
2023-05-04T12:46:48.735Z,39.70
2023-05-04T12:49:17.146Z,39.30
2023-05-04T12:51:45.773Z,39.40
2023-05-04T12:54:14.401Z,39.30
2023-05-04T12:56:42.870Z,39.20
2023-05-04T12:59:11.842Z,39.20
2023-05-04T13:01:41.950Z,39.00
2023-05-04T13:04:11.752Z,39.00
2023-05-04T13:06:40.278Z,39.00
2023-05-04T13:09:08.888Z,39.50
2023-05-04T13:11:37.946Z,39.60
2023-05-04T13:14:07.281Z,39.70
2023-05-04T13:16:35.765Z,39.80
2023-05-04T13:19:04.894Z,40.00
2023-05-04T13:21:34.702Z,40.20
2023-05-04T13:24:03.316Z,40.50
2023-05-04T13:26:32.213Z,40.30
2023-05-04T13:29:01.094Z,40.50
2023-05-04T13:31:29.536Z,41.30
2023-05-04T13:33:58.036Z,40.70
2023-05-04T13:36:26.775Z,40.70
2023-05-04T13:38:56.889Z,40.60
2023-05-04T13:41:25.395Z,40.50
2023-05-04T13:43:54.148Z,40.40
2023-05-04T13:46:23.126Z,40.10
2023-05-04T13:48:52.256Z,40.00
2023-05-04T13:51:21.002Z,40.00
2023-05-04T13:53:49.427Z,39.90
2023-05-04T13:56:19.206Z,40.00
2023-05-04T13:58:47.653Z,40.30
2023-05-04T14:01:16.160Z,40.60
2023-05-04T14:03:44.651Z,40.50
2023-05-04T14:06:13.049Z,40.30
2023-05-04T14:08:41.406Z,40.70
2023-05-04T14:11:09.815Z,40.50
2023-05-04T14:13:39.856Z,40.50
2023-05-04T14:16:08.504Z,40.30
2023-05-04T14:18:36.976Z,40.40
2023-05-04T14:21:05.679Z,40.60
2023-05-04T14:23:34.297Z,40.80
2023-05-04T14:26:03.257Z,40.70
2023-05-04T14:28:32.224Z,40.70
2023-05-04T14:31:08.775Z,40.80
2023-05-04T14:33:37.481Z,41.00
2023-05-04T14:36:06.642Z,40.90
2023-05-04T14:38:36.080Z,40.80
2023-05-04T14:41:05.425Z,40.60
2023-05-04T14:43:36.626Z,40.60
2023-05-04T14:46:09.278Z,40.50
2023-05-04T14:48:37.825Z,40.30
2023-05-04T14:51:06.401Z,40.60
2023-05-04T14:53:37.259Z,40.70
2023-05-04T14:56:07.790Z,40.70
2023-05-04T14:58:36.417Z,40.70
2023-05-04T15:01:06.688Z,40.50
2023-05-04T15:03:35.491Z,40.60
2023-05-04T15:06:03.975Z,40.70
2023-05-04T15:08:32.459Z,40.70
2023-05-04T15:11:01.066Z,40.40
2023-05-04T15:13:29.459Z,40.30
2023-05-04T15:15:58.260Z,40.20
2023-05-04T15:18:28.858Z,40.30
2023-05-04T15:20:57.395Z,40.20
2023-05-04T15:23:25.724Z,40.10
2023-05-04T15:25:54.156Z,40.30
2023-05-04T15:28:23.027Z,40.40
2023-05-04T15:30:51.428Z,40.30
2023-05-04T15:33:19.765Z,40.50
2023-05-04T15:35:49.959Z,40.60
2023-05-04T15:38:18.917Z,40.70
2023-05-04T15:40:47.325Z,40.60
2023-05-04T15:43:16.222Z,40.40
2023-05-04T15:45:44.729Z,40.50
2023-05-04T15:48:13.126Z,40.40
2023-05-04T15:50:41.532Z,40.30
2023-05-04T15:53:11.341Z,40.40
2023-05-04T15:55:40.365Z,40.40
2023-05-04T15:58:09.003Z,40.50
2023-05-04T16:00:37.702Z,40.50
2023-05-04T16:03:06.703Z,40.30
2023-05-04T16:05:35.198Z,40.50
2023-05-04T16:08:03.634Z,40.50
2023-05-04T16:10:33.460Z,40.60
2023-05-04T16:13:04.362Z,40.50
2023-05-04T16:15:32.896Z,40.40
2023-05-04T16:18:01.555Z,40.10
2023-05-04T16:20:30.629Z,40.10
2023-05-04T16:22:59.020Z,40.20
2023-05-04T16:25:27.431Z,40.20
2023-05-04T16:27:57.692Z,40.30
2023-05-04T16:30:32.177Z,40.20
2023-05-04T16:33:00.893Z,40.10
2023-05-04T16:35:31.703Z,40.00
2023-05-04T16:38:00.530Z,40.00
2023-05-04T16:40:29.306Z,40.20
2023-05-04T16:42:59.270Z,40.30
2023-05-04T16:45:31.822Z,40.00
2023-05-04T16:48:00.990Z,39.90
2023-05-04T16:50:29.840Z,39.80
2023-05-04T16:52:58.283Z,39.60
2023-05-04T16:55:27.561Z,39.10
2023-05-04T16:57:59.478Z,38.90
2023-05-04T17:00:29.146Z,38.60
2023-05-04T17:02:57.683Z,38.20
2023-05-04T17:05:26.537Z,38.20
2023-05-04T17:07:54.839Z,38.30
2023-05-04T17:10:24.699Z,38.20
2023-05-04T17:12:54.952Z,38.10
2023-05-04T17:15:25.016Z,38.10
2023-05-04T17:17:55.601Z,38.10
2023-05-04T17:20:28.671Z,38.00
2023-05-04T17:22:58.533Z,38.00
2023-05-04T17:25:27.754Z,38.00
2023-05-04T17:27:56.500Z,37.90
2023-05-04T17:30:27.013Z,37.80
2023-05-04T17:32:57.419Z,37.90
2023-05-04T17:35:26.772Z,37.80
2023-05-04T17:37:57.918Z,37.80
2023-05-04T17:40:28.768Z,37.90
2023-05-04T17:42:57.358Z,37.60
2023-05-04T17:45:27.178Z,37.60
2023-05-04T17:47:57.214Z,37.80
2023-05-04T17:50:26.774Z,37.80
2023-05-04T17:52:56.689Z,38.30
2023-05-04T17:55:25.791Z,37.90
2023-05-04T17:57:55.090Z,37.90
2023-05-04T18:00:24.218Z,38.10
2023-05-04T18:02:54.534Z,38.10
2023-05-04T18:05:23.012Z,38.00
2023-05-04T18:07:51.722Z,38.20
2023-05-04T18:10:20.472Z,38.20
2023-05-04T18:12:48.924Z,38.30
2023-05-04T18:15:18.472Z,38.40
2023-05-04T18:17:48.567Z,38.40
2023-05-04T18:20:18.365Z,38.50
2023-05-04T18:22:46.780Z,38.70
2023-05-04T18:25:15.330Z,38.80
2023-05-04T18:27:44.467Z,38.80
2023-05-04T18:30:13.477Z,38.90
2023-05-04T18:32:42.234Z,38.90
2023-05-04T18:35:11.670Z,39.10
2023-05-04T18:37:41.710Z,39.00
2023-05-04T18:40:11.518Z,39.10
2023-05-04T18:42:40.475Z,39.20
2023-05-04T18:45:11.450Z,39.10
2023-05-04T18:47:39.854Z,39.20
2023-05-04T18:50:10.517Z,39.10
2023-05-04T18:52:39.008Z,39.20
2023-05-04T18:55:10.514Z,39.30
2023-05-04T18:57:38.881Z,39.20
2023-05-04T19:00:09.638Z,39.30
2023-05-04T19:02:38.793Z,39.30
2023-05-04T19:05:07.974Z,39.30
2023-05-04T19:07:37.009Z,39.30
2023-05-04T19:10:06.588Z,39.30
2023-05-04T19:12:36.964Z,39.50
2023-05-04T19:15:06.892Z,39.30
2023-05-04T19:17:35.374Z,39.40
2023-05-04T19:20:04.385Z,39.60
2023-05-04T19:22:32.758Z,39.50
2023-05-04T19:25:01.194Z,39.60
2023-05-04T19:27:29.880Z,39.60
2023-05-04T19:29:59.658Z,39.60
2023-05-04T19:32:28.488Z,39.70
2023-05-04T19:34:57.004Z,39.70
2023-05-04T19:37:25.732Z,39.70
2023-05-04T19:39:54.706Z,39.70
2023-05-04T19:42:23.091Z,39.80
2023-05-04T19:44:51.883Z,39.80
2023-05-04T19:47:21.964Z,39.80
2023-05-04T19:49:50.292Z,39.70
2023-05-04T19:52:18.783Z,39.90
2023-05-04T19:54:48.615Z,39.80
2023-05-04T19:57:17.091Z,39.60
2023-05-04T19:59:47.008Z,40.20
2023-05-04T20:02:16.194Z,39.60
2023-05-04T20:04:46.338Z,39.50
2023-05-04T20:07:14.781Z,39.60
2023-05-04T20:09:43.437Z,40.00
2023-05-04T20:12:12.225Z,39.70
2023-05-04T20:14:41.224Z,39.80
2023-05-04T20:17:09.843Z,39.90
2023-05-04T20:19:40.778Z,40.00
2023-05-04T20:22:11.079Z,40.00
2023-05-04T20:24:39.581Z,40.10
2023-05-04T20:27:08.241Z,40.10
2023-05-04T20:29:37.016Z,40.10
2023-05-04T20:32:07.258Z,40.00
2023-05-04T20:34:36.301Z,40.10
2023-05-04T20:37:04.651Z,40.20
2023-05-04T20:39:34.439Z,40.20
2023-05-04T20:42:03.997Z,40.20
2023-05-04T20:44:32.763Z,40.30
2023-05-04T20:47:01.256Z,40.20
2023-05-04T20:49:29.557Z,40.20
2023-05-04T20:51:58.368Z,40.20
2023-05-04T20:54:26.789Z,40.20
2023-05-04T20:56:56.550Z,40.20
2023-05-04T20:59:24.916Z,40.30
2023-05-04T21:01:53.304Z,40.40
2023-05-04T21:04:21.905Z,40.50
2023-05-04T21:06:50.534Z,40.50
2023-05-04T21:09:19.202Z,40.60
2023-05-04T21:11:47.714Z,40.60
2023-05-04T21:14:17.775Z,40.60
2023-05-04T21:16:46.065Z,40.70
2023-05-04T21:19:14.497Z,40.80
2023-05-04T21:21:42.818Z,40.80
2023-05-04T21:24:15.204Z,40.80
2023-05-04T21:26:44.997Z,41.10
2023-05-04T21:29:14.030Z,41.00
2023-05-04T21:31:44.193Z,41.10
2023-05-04T21:34:12.625Z,41.00
2023-05-04T21:36:44.349Z,41.00
2023-05-04T21:39:12.785Z,41.00
2023-05-04T21:41:41.499Z,41.00
2023-05-04T21:44:09.866Z,41.70
2023-05-04T21:46:38.352Z,41.00
2023-05-04T21:49:08.416Z,41.10
2023-05-04T21:51:36.944Z,41.30
2023-05-04T21:54:05.371Z,41.30
2023-05-04T21:56:34.135Z,41.30
2023-05-04T21:59:03.136Z,41.40
2023-05-04T22:01:31.520Z,41.50
2023-05-04T22:04:00.258Z,41.50
2023-05-04T22:06:30.170Z,41.50
2023-05-04T22:08:58.814Z,41.70
2023-05-04T22:11:27.410Z,41.70
2023-05-04T22:13:56.268Z,41.80
2023-05-04T22:16:25.314Z,41.70
2023-05-04T22:18:53.940Z,41.80
2023-05-04T22:21:22.435Z,41.90
2023-05-04T22:23:52.286Z,41.90
2023-05-04T22:26:20.826Z,42.00
2023-05-04T22:28:49.175Z,42.00
2023-05-04T22:31:17.540Z,42.10
2023-05-04T22:33:46.739Z,42.20
2023-05-04T22:36:15.448Z,42.20
2023-05-04T22:38:43.913Z,42.30
2023-05-04T22:41:14.699Z,42.20
2023-05-04T22:43:43.069Z,42.30
2023-05-04T22:46:17.200Z,42.30
2023-05-04T22:48:47.413Z,42.50
2023-05-04T22:51:16.022Z,42.40
2023-05-04T22:53:44.931Z,42.40
2023-05-04T22:56:14.944Z,42.50
2023-05-04T22:58:43.591Z,42.60
2023-05-04T23:01:12.102Z,42.50
2023-05-04T23:03:41.022Z,42.50
2023-05-04T23:06:09.749Z,42.50
2023-05-04T23:08:38.710Z,42.60
2023-05-04T23:11:07.226Z,42.60
2023-05-04T23:13:37.593Z,42.50
2023-05-04T23:16:07.676Z,42.60
2023-05-04T23:18:36.524Z,42.60
2023-05-04T23:21:05.449Z,42.50
2023-05-04T23:23:34.681Z,42.60
2023-05-04T23:26:03.176Z,42.50
2023-05-04T23:28:31.526Z,42.50
2023-05-04T23:31:02.483Z,42.50
2023-05-04T23:33:30.958Z,42.60
2023-05-04T23:35:59.462Z,42.50
2023-05-04T23:38:27.946Z,42.60
2023-05-04T23:40:56.960Z,42.60
2023-05-04T23:43:25.747Z,42.50
2023-05-04T23:46:02.201Z,42.60
2023-05-04T23:48:31.877Z,42.60
2023-05-04T23:51:03.838Z,42.50
2023-05-04T23:53:33.661Z,42.60
2023-05-04T23:56:04.318Z,42.50
2023-05-04T23:58:34.078Z,42.50
